Time;durP1;ratioP1;P1;durP2;ratioP2;P2;SDS_P1;SDS_P2;PMS_P1;PMS_P2;Temp;Humidity;BMP_temperature;BMP_pressure;BME280_temperature;BME280_humidity;BME280_pressure;Samples;Min_cycle;Max_cycle;Signal;HPM_P1;HPM_P2
2021/05/17 00:01:19;;;;;;;9.40;9.00;;;24.70;61.50;;;;;;3556299;40;20602;-51
2021/05/17 00:03:49;;;;;;;9.20;8.90;;;24.70;61.60;;;;;;3556935;40;20481;-50
2021/05/17 00:06:18;;;;;;;9.80;9.30;;;24.70;61.60;;;;;;3556909;40;20515;-50
2021/05/17 00:08:46;;;;;;;9.83;9.33;;;24.70;61.60;;;;;;3556281;40;20580;-49
2021/05/17 00:11:14;;;;;;;9.70;9.30;;;24.70;61.60;;;;;;3556787;40;20561;-50
2021/05/17 00:13:42;;;;;;;9.57;9.07;;;24.70;61.70;;;;;;3555749;40;20480;-49
2021/05/17 00:16:10;;;;;;;9.70;9.40;;;24.70;61.70;;;;;;3557640;40;20524;-50
2021/05/17 00:18:39;;;;;;;9.93;9.55;;;24.70;61.70;;;;;;3557220;40;20511;-51
2021/05/17 00:21:08;;;;;;;9.57;9.27;;;24.70;61.70;;;;;;3556905;40;20642;-51
2021/05/17 00:23:38;;;;;;;10.20;9.90;;;24.70;61.70;;;;;;3557416;40;20504;-49
2021/05/17 00:26:12;;;;;;;9.77;9.47;;;24.70;61.70;;;;;;3558020;40;20477;-50
2021/05/17 00:28:40;;;;;;;9.70;9.40;;;24.80;61.80;;;;;;3557467;40;20510;-51
2021/05/17 00:31:07;;;;;;;9.67;9.27;;;24.80;61.80;;;;;;3556551;40;20506;-49
2021/05/17 00:33:35;;;;;;;10.43;10.03;;;24.80;61.80;;;;;;3556512;40;20478;-49
2021/05/17 00:36:10;;;;;;;9.73;9.25;;;24.80;61.80;;;;;;3558055;40;20494;-50
2021/05/17 00:38:38;;;;;;;9.80;9.50;;;24.70;61.70;;;;;;3557947;40;20231;-50
2021/05/17 00:41:06;;;;;;;10.43;9.63;;;24.80;61.90;;;;;;3557096;40;20479;-51
2021/05/17 00:43:36;;;;;;;9.33;9.03;;;24.80;61.90;;;;;;3557289;40;20498;-52
2021/05/17 00:46:05;;;;;;;9.80;9.40;;;24.80;61.90;;;;;;3556546;40;20881;-51
2021/05/17 00:48:34;;;;;;;9.53;9.20;;;24.80;61.90;;;;;;3556529;40;20535;-51
2021/05/17 00:51:02;;;;;;;9.30;8.90;;;24.80;61.90;;;;;;3557205;40;20489;-50
2021/05/17 00:53:31;;;;;;;9.37;9.07;;;24.80;61.90;;;;;;3563634;40;21031;-50
2021/05/17 00:55:58;;;;;;;10.10;9.60;;;24.80;61.90;;;;;;3566255;40;20754;-51
2021/05/17 00:58:26;;;;;;;9.90;9.50;;;24.80;61.90;;;;;;3564823;40;20486;-50
2021/05/17 01:00:54;;;;;;;9.83;9.43;;;24.80;61.90;;;;;;3566446;40;20500;-50
2021/05/17 01:03:21;;;;;;;9.47;9.17;;;24.80;62.00;;;;;;3566823;40;20738;-49
2021/05/17 01:05:56;;;;;;;9.90;9.60;;;24.80;62.00;;;;;;3566560;40;20504;-50
2021/05/17 01:08:25;;;;;;;10.00;9.60;;;24.80;61.90;;;;;;3565848;40;20709;-50
2021/05/17 01:11:02;;;;;;;9.60;9.30;;;24.80;62.00;;;;;;3556966;40;20507;-50
2021/05/17 01:13:31;;;;;;;9.30;9.00;;;24.80;62.00;;;;;;3565856;40;21097;-50
2021/05/17 01:16:00;;;;;;;9.73;9.43;;;24.80;62.10;;;;;;3566876;40;20915;-52
2021/05/17 01:18:28;;;;;;;9.40;9.10;;;24.80;62.00;;;;;;3565940;40;20482;-49
2021/05/17 01:20:57;;;;;;;9.73;9.33;;;24.80;62.10;;;;;;3547627;40;20519;-50
2021/05/17 01:26:17;;;;;;;9.63;9.23;;;24.80;62.10;;;;;;3538637;40;20582;-51
2021/05/17 01:28:45;;;;;;;10.63;10.23;;;24.80;62.10;;;;;;3545918;40;20506;-49
2021/05/17 01:31:15;;;;;;;9.70;9.30;;;24.80;62.10;;;;;;3537174;40;20913;-51
2021/05/17 01:33:45;;;;;;;9.33;9.03;;;24.80;62.10;;;;;;3546417;40;20977;-49
2021/05/17 01:36:14;;;;;;;9.47;9.17;;;24.80;62.10;;;;;;3547614;40;20491;-50
2021/05/17 01:38:45;;;;;;;9.40;9.10;;;24.80;62.10;;;;;;3547075;40;21084;-49
2021/05/17 01:41:15;;;;;;;9.37;9.00;;;24.80;62.10;;;;;;3565580;40;20473;-50
2021/05/17 01:43:44;;;;;;;9.40;9.10;;;24.80;62.10;;;;;;3565964;40;20489;-51
2021/05/17 01:46:15;;;;;;;9.60;9.20;;;24.80;62.20;;;;;;3566347;40;20237;-50
2021/05/17 01:48:42;;;;;;;10.00;9.60;;;24.80;62.10;;;;;;3566304;40;20498;-49
2021/05/17 01:51:14;;;;;;;9.57;9.27;;;24.80;62.10;;;;;;3558253;40;20473;-50
2021/05/17 01:53:42;;;;;;;10.47;9.97;;;24.80;62.20;;;;;;3566978;40;20486;-51
2021/05/17 01:56:12;;;;;;;9.70;9.40;;;24.80;62.20;;;;;;3566668;40;20584;-49
2021/05/17 01:58:40;;;;;;;9.80;9.50;;;24.80;62.20;;;;;;3565765;40;20566;-49
2021/05/17 02:01:12;;;;;;;10.50;9.90;;;24.80;62.20;;;;;;3565859;40;20478;-51
2021/05/17 02:03:41;;;;;;;10.23;9.87;;;24.80;62.20;;;;;;3566375;40;20477;-51
2021/05/17 02:06:11;;;;;;;9.80;9.50;;;24.80;62.10;;;;;;3566213;40;20578;-50
2021/05/17 02:08:42;;;;;;;9.97;9.67;;;24.80;62.10;;;;;;3566992;40;20562;-51
2021/05/17 02:11:11;;;;;;;9.48;9.25;;;24.90;62.30;;;;;;3566214;40;20984;-50
2021/05/17 02:13:40;;;;;;;9.90;9.60;;;24.80;62.20;;;;;;3556973;40;20251;-49
2021/05/17 02:16:13;;;;;;;10.00;9.70;;;24.80;62.20;;;;;;3566704;40;20479;-50
2021/05/17 02:18:42;;;;;;;9.93;9.63;;;24.90;62.30;;;;;;3566964;40;20481;-50
2021/05/17 02:21:12;;;;;;;9.90;9.60;;;24.80;62.20;;;;;;3557557;40;20693;-49
2021/05/17 02:23:42;;;;;;;10.10;9.73;;;24.90;62.30;;;;;;3566623;40;20494;-50
2021/05/17 02:26:13;;;;;;;9.50;9.20;;;24.90;62.30;;;;;;3548776;40;20487;-49
2021/05/17 02:28:44;;;;;;;9.90;9.60;;;24.90;62.30;;;;;;3557192;40;20486;-50
2021/05/17 02:31:13;;;;;;;9.70;9.40;;;24.90;62.40;;;;;;3557298;40;20526;-50
2021/05/17 02:33:40;;;;;;;9.67;9.37;;;24.90;62.30;;;;;;3566014;40;20496;-51
2021/05/17 02:36:09;;;;;;;9.63;9.33;;;24.90;62.40;;;;;;3566578;40;20482;-50
2021/05/17 02:38:38;;;;;;;10.00;9.50;;;24.90;62.40;;;;;;3557425;40;20500;-50
2021/05/17 02:41:06;;;;;;;9.63;9.30;;;24.80;62.30;;;;;;3556901;40;20845;-49
2021/05/17 02:43:34;;;;;;;9.53;9.23;;;24.80;62.30;;;;;;3566477;40;20227;-52
2021/05/17 02:46:12;;;;;;;10.13;9.83;;;24.90;62.50;;;;;;3565789;40;20490;-51
2021/05/17 02:48:44;;;;;;;10.43;10.03;;;24.90;62.50;;;;;;3557044;40;20472;-50
2021/05/17 02:51:12;;;;;;;10.00;9.70;;;24.90;62.50;;;;;;3565900;40;20498;-51
2021/05/17 02:54:10;;;;;;;10.45;10.15;;;24.90;62.50;;;;;;3566802;40;20508;-49
2021/05/17 02:57:07;;;;;;;10.10;9.80;;;24.90;62.60;;;;;;3556858;40;20260;-49
2021/05/17 03:00:08;;;;;;;10.13;9.70;;;24.90;62.50;;;;;;3565354;40;20490;-49
2021/05/17 03:02:51;;;;;;;10.27;9.97;;;24.90;62.50;;;;;;3561127;40;20486;-50
2021/05/17 03:05:19;;;;;;;10.47;10.10;;;24.90;62.50;;;;;;3567890;40;20477;-49
2021/05/17 03:07:53;;;;;;;10.70;10.30;;;24.90;62.50;;;;;;3567266;40;20887;-50
2021/05/17 03:10:23;;;;;;;9.80;9.43;;;24.90;62.60;;;;;;3558110;40;20898;-51
2021/05/17 03:12:55;;;;;;;9.57;9.27;;;24.90;62.60;;;;;;3567013;40;20526;-49
2021/05/17 03:15:26;;;;;;;9.82;9.43;;;24.90;62.60;;;;;;3558391;40;20474;-50
2021/05/17 03:17:56;;;;;;;10.60;10.30;;;24.90;62.60;;;;;;3567887;40;20240;-51
2021/05/17 03:20:25;;;;;;;9.93;9.63;;;24.90;62.60;;;;;;3566736;40;20309;-49
2021/05/17 03:22:54;;;;;;;10.10;9.80;;;24.90;62.50;;;;;;3567226;40;20475;-50
2021/05/17 03:25:24;;;;;;;11.53;10.90;;;24.90;62.50;;;;;;3566517;40;20509;-51
2021/05/17 03:27:52;;;;;;;10.20;9.90;;;24.90;62.50;;;;;;3566981;40;20497;-49
2021/05/17 03:30:21;;;;;;;10.60;10.23;;;24.90;62.60;;;;;;3557537;40;20477;-51
2021/05/17 03:32:49;;;;;;;10.40;10.10;;;24.90;62.60;;;;;;3566944;40;20491;-49
2021/05/17 03:35:17;;;;;;;10.80;10.40;;;24.90;62.60;;;;;;3566259;40;20473;-51
2021/05/17 03:37:46;;;;;;;11.60;11.20;;;24.90;62.50;;;;;;3566069;40;20483;-50
2021/05/17 03:40:16;;;;;;;11.63;11.23;;;24.90;62.60;;;;;;3566241;40;20501;-52
2021/05/17 03:42:44;;;;;;;11.50;11.20;;;24.90;62.50;;;;;;3566173;40;20873;-52
2021/05/17 03:45:14;;;;;;;11.30;10.90;;;25.00;62.60;;;;;;3566471;40;20485;-51
2021/05/17 03:47:41;;;;;;;12.20;11.80;;;25.00;62.60;;;;;;3567288;40;20574;-50
2021/05/17 03:50:13;;;;;;;12.20;11.80;;;25.00;62.60;;;;;;3566088;40;20478;-50
2021/05/17 03:52:41;;;;;;;12.50;11.90;;;25.00;62.60;;;;;;3565452;40;20842;-50
2021/05/17 03:55:09;;;;;;;11.93;11.53;;;25.00;62.60;;;;;;3565450;40;20481;-49
2021/05/17 03:57:37;;;;;;;12.20;11.60;;;25.00;62.60;;;;;;3565616;40;20573;-52
2021/05/17 04:00:08;;;;;;;11.70;11.30;;;25.00;62.60;;;;;;3566413;40;20537;-53
2021/05/17 04:02:43;;;;;;;11.47;11.07;;;25.00;62.60;;;;;;3557836;40;20892;-50
2021/05/17 04:08:12;;;;;;;11.17;10.83;;;25.00;62.60;;;;;;3564232;40;20488;-52
2021/05/17 04:13:26;;;;;;;11.70;11.32;;;25.10;62.60;;;;;;3563952;40;20487;-51
2021/05/17 04:15:54;;;;;;;11.23;10.93;;;25.10;62.60;;;;;;3565099;40;20227;-51
2021/05/17 04:18:22;;;;;;;11.70;11.30;;;25.10;62.50;;;;;;3564251;40;20485;-50
2021/05/17 04:20:53;;;;;;;11.80;11.50;;;25.10;62.50;;;;;;3554813;40;20924;-52
2021/05/17 04:23:21;;;;;;;11.90;11.50;;;25.10;62.50;;;;;;3554287;40;20753;-50
2021/05/17 04:25:48;;;;;;;11.20;10.90;;;25.10;62.50;;;;;;3553415;40;20495;-47
2021/05/17 04:28:15;;;;;;;11.57;11.13;;;25.10;62.50;;;;;;3564260;40;20468;-51
2021/05/17 04:30:43;;;;;;;11.68;11.27;;;25.10;62.50;;;;;;3554825;40;20480;-52
2021/05/17 04:33:10;;;;;;;11.63;11.23;;;25.10;62.50;;;;;;3563892;40;20603;-50
2021/05/17 04:35:38;;;;;;;11.60;11.20;;;25.20;62.60;;;;;;3564528;40;20243;-50
2021/05/17 04:38:06;;;;;;;11.47;10.93;;;25.20;62.60;;;;;;3564512;40;20497;-51
2021/05/17 04:40:33;;;;;;;11.20;10.90;;;25.20;62.50;;;;;;3564100;40;20587;-50
2021/05/17 04:43:01;;;;;;;11.93;11.30;;;25.20;62.40;;;;;;3564988;40;20487;-49
2021/05/17 04:45:28;;;;;;;11.20;10.90;;;25.20;62.40;;;;;;3564391;40;20498;-51
2021/05/17 04:47:56;;;;;;;11.20;10.80;;;25.30;62.50;;;;;;3564599;40;20472;-50
2021/05/17 04:50:24;;;;;;;10.70;10.40;;;25.20;62.40;;;;;;3563712;40;20478;-49
2021/05/17 04:52:51;;;;;;;11.17;10.83;;;25.30;62.50;;;;;;3563119;40;20514;-50
2021/05/17 04:55:20;;;;;;;11.10;10.70;;;25.30;62.40;;;;;;3562718;40;20666;-50
2021/05/17 04:57:48;;;;;;;11.03;10.73;;;25.30;62.40;;;;;;3560870;40;20536;-50
2021/05/17 05:00:16;;;;;;;11.30;11.00;;;25.30;62.40;;;;;;3561149;40;20877;-51
2021/05/17 05:02:44;;;;;;;12.00;11.60;;;25.30;62.40;;;;;;3562163;40;20724;-50
2021/05/17 05:05:12;;;;;;;11.30;11.00;;;25.30;62.40;;;;;;3560634;40;20577;-50
2021/05/17 05:07:40;;;;;;;11.67;11.23;;;25.30;62.40;;;;;;3552316;40;20831;-50
2021/05/17 05:10:08;;;;;;;11.33;11.03;;;25.30;62.40;;;;;;3561608;40;20519;-50
2021/05/17 05:12:40;;;;;;;11.80;11.40;;;25.30;62.40;;;;;;3561198;40;20510;-51
2021/05/17 05:15:08;;;;;;;11.53;11.13;;;25.30;62.50;;;;;;3559508;40;20478;-49
2021/05/17 05:17:38;;;;;;;11.80;11.30;;;25.30;62.50;;;;;;3559550;40;20496;-50
2021/05/17 05:20:06;;;;;;;11.30;11.00;;;25.30;62.40;;;;;;3559484;40;20755;-49
2021/05/17 05:22:35;;;;;;;10.90;10.60;;;25.30;62.50;;;;;;3557434;40;20497;-49
2021/05/17 05:25:05;;;;;;;10.67;10.37;;;25.30;62.40;;;;;;3557732;40;20463;-48
2021/05/17 05:27:35;;;;;;;11.40;11.03;;;25.40;62.50;;;;;;3558437;40;21321;-50
2021/05/17 05:30:17;;;;;;;11.30;10.90;;;25.40;62.40;;;;;;3558568;40;20483;-51
2021/05/17 05:32:49;;;;;;;10.83;10.50;;;25.40;62.50;;;;;;3556786;40;20514;-52
2021/05/17 05:35:17;;;;;;;10.87;10.57;;;25.40;62.50;;;;;;3554505;40;20486;-50
2021/05/17 05:37:45;;;;;;;10.80;10.50;;;25.40;62.50;;;;;;3553853;40;20981;-51
2021/05/17 05:40:13;;;;;;;11.17;10.87;;;25.40;62.50;;;;;;3555526;40;20715;-50
2021/05/17 05:42:41;;;;;;;11.37;10.97;;;25.40;62.50;;;;;;3554704;40;20570;-50
2021/05/17 05:45:11;;;;;;;10.30;10.00;;;25.40;62.50;;;;;;3551976;40;20707;-50
2021/05/17 05:47:38;;;;;;;10.80;10.50;;;25.40;62.50;;;;;;3552852;40;20794;-49
2021/05/17 05:50:06;;;;;;;10.50;10.20;;;25.40;62.50;;;;;;3553342;40;20234;-50
2021/05/17 05:52:33;;;;;;;11.40;10.80;;;25.40;62.50;;;;;;3551048;40;20481;-51
2021/05/17 05:55:04;;;;;;;11.90;11.30;;;25.40;62.70;;;;;;3549410;40;20510;-53
2021/05/17 05:57:38;;;;;;;11.80;10.70;;;25.40;62.70;;;;;;3550986;40;20223;-49
2021/05/17 06:00:07;;;;;;;11.20;10.73;;;25.40;62.80;;;;;;3540447;40;20494;-49
2021/05/17 06:02:41;;;;;;;11.67;11.10;;;25.40;63.00;;;;;;3550938;40;20577;-49
2021/05/17 06:05:09;;;;;;;12.40;11.32;;;25.40;63.00;;;;;;3551680;40;20938;-51
2021/05/17 06:07:35;;;;;;;11.93;10.82;;;25.40;63.10;;;;;;3544566;40;20237;-52
2021/05/17 06:10:04;;;;;;;11.27;10.60;;;25.40;63.40;;;;;;3546723;40;20245;-51
2021/05/17 06:12:32;;;;;;;11.00;10.50;;;25.40;63.50;;;;;;3549791;40;20491;-55
2021/05/17 06:15:00;;;;;;;10.63;10.33;;;25.40;61.90;;;;;;3550393;40;20492;-51
2021/05/17 06:17:28;;;;;;;10.40;10.10;;;25.30;57.10;;;;;;3541838;40;20761;-51
2021/05/17 06:19:56;;;;;;;10.73;10.43;;;25.00;56.50;;;;;;3547121;40;20493;-50
2021/05/17 06:22:26;;;;;;;10.93;10.53;;;24.80;56.50;;;;;;3546910;40;20497;-50
2021/05/17 06:24:54;;;;;;;11.47;10.87;;;24.70;56.80;;;;;;3547812;40;20496;-51
2021/05/17 06:27:22;;;;;;;11.53;10.80;;;24.70;58.60;;;;;;3547793;40;20537;-53
2021/05/17 06:29:52;;;;;;;11.07;10.57;;;24.70;59.60;;;;;;3545053;40;20758;-50
2021/05/17 06:32:20;;;;;;;11.02;10.40;;;24.80;60.00;;;;;;3547665;40;20802;-52
2021/05/17 06:34:49;;;;;;;11.15;10.45;;;24.80;60.40;;;;;;3540975;40;20243;-50
2021/05/17 06:37:18;;;;;;;11.53;10.80;;;24.90;60.90;;;;;;3538439;40;20716;-53
2021/05/17 06:39:46;;;;;;;11.80;10.90;;;24.90;61.00;;;;;;3539872;40;21165;-50
2021/05/17 06:42:14;;;;;;;12.00;11.37;;;25.00;61.20;;;;;;3545145;40;20495;-52
2021/05/17 06:44:42;;;;;;;11.70;11.00;;;25.00;61.30;;;;;;3546677;40;20494;-54
2021/05/17 06:47:11;;;;;;;11.70;11.10;;;25.10;61.50;;;;;;3547900;40;20602;-52
2021/05/17 06:49:39;;;;;;;11.80;11.13;;;25.10;61.60;;;;;;3537533;40;20475;-53
2021/05/17 06:52:09;;;;;;;12.33;11.77;;;25.10;61.70;;;;;;3546000;40;20869;-50
2021/05/17 06:54:39;;;;;;;12.00;11.40;;;25.20;61.80;;;;;;3547776;40;20576;-50
2021/05/17 06:57:13;;;;;;;12.47;11.67;;;25.20;61.80;;;;;;3546421;40;20502;-51
2021/05/17 06:59:44;;;;;;;11.63;10.93;;;25.20;61.80;;;;;;3545521;40;20715;-51
2021/05/17 07:02:18;;;;;;;12.20;11.50;;;25.20;61.80;;;;;;3547914;40;20900;-52
2021/05/17 07:04:45;;;;;;;11.33;10.60;;;25.30;62.00;;;;;;3546086;40;20483;-51
2021/05/17 07:07:17;;;;;;;11.47;10.87;;;25.30;62.10;;;;;;3547134;40;20469;-52
2021/05/17 07:12:32;;;;;;;11.33;10.83;;;25.30;62.30;;;;;;3548154;40;20840;-50
2021/05/17 07:15:01;;;;;;;12.17;11.20;;;25.30;62.30;;;;;;3548677;40;20705;-51
2021/05/17 07:17:29;;;;;;;11.50;10.87;;;25.30;62.50;;;;;;3540653;40;20481;-51
2021/05/17 07:19:57;;;;;;;11.43;10.53;;;25.30;62.70;;;;;;3549169;40;20496;-50
2021/05/17 07:25:12;;;;;;;12.63;11.57;;;25.30;63.00;;;;;;3546447;40;20466;-51
2021/05/17 07:27:39;;;;;;;11.57;10.87;;;25.30;63.10;;;;;;3536493;40;20486;-50
2021/05/17 07:30:07;;;;;;;12.70;11.80;;;25.30;63.30;;;;;;3536143;40;20483;-46
2021/05/17 07:32:35;;;;;;;12.37;11.60;;;25.30;63.40;;;;;;3535603;40;20481;-51
2021/05/17 07:35:02;;;;;;;11.93;11.43;;;25.30;63.40;;;;;;3535231;40;21323;-50
2021/05/17 07:37:28;;;;;;;16.50;12.30;;;25.30;63.50;;;;;;3533792;40;20501;-50
2021/05/17 07:39:56;;;;;;;14.10;11.20;;;25.30;63.60;;;;;;3535243;40;20489;-49
2021/05/17 07:42:24;;;;;;;13.00;12.23;;;25.30;63.60;;;;;;3534430;40;20865;-53
2021/05/17 07:44:52;;;;;;;13.60;12.23;;;25.30;63.60;;;;;;3534783;40;20277;-51
2021/05/17 07:47:20;;;;;;;12.10;11.43;;;25.40;63.80;;;;;;3536914;40;21343;-50
2021/05/17 07:49:53;;;;;;;13.33;12.03;;;25.40;63.80;;;;;;3537507;40;20478;-50
2021/05/17 07:52:20;;;;;;;11.77;11.07;;;25.30;63.80;;;;;;3539086;40;20487;-51
2021/05/17 07:54:48;;;;;;;12.10;11.27;;;25.40;63.90;;;;;;3536923;40;20485;-50
2021/05/17 07:57:15;;;;;;;13.37;11.83;;;25.30;63.80;;;;;;3521705;40;20830;-51
2021/05/17 07:59:44;;;;;;;12.57;11.45;;;25.30;64.00;;;;;;3533185;40;20496;-51
2021/05/17 08:02:11;;;;;;;11.63;10.70;;;25.30;64.10;;;;;;3537051;40;20248;-51
2021/05/17 08:04:38;;;;;;;12.90;11.80;;;25.30;64.00;;;;;;3536338;40;20766;-52
2021/05/17 08:07:06;;;;;;;12.53;11.53;;;25.30;64.10;;;;;;3534626;40;20577;-50
2021/05/17 08:09:34;;;;;;;12.87;11.80;;;25.30;64.20;;;;;;3536764;40;20487;-52
2021/05/17 08:12:01;;;;;;;12.90;11.80;;;25.30;64.20;;;;;;3534851;40;20609;-52
2021/05/17 08:14:27;;;;;;;12.73;11.73;;;25.30;64.20;;;;;;3532375;40;20709;-50
2021/05/17 08:16:56;;;;;;;10.80;10.20;;;25.30;64.20;;;;;;3532548;40;20783;-52
2021/05/17 08:19:24;;;;;;;11.57;10.87;;;25.30;64.30;;;;;;3534069;40;20502;-49
2021/05/17 08:21:51;;;;;;;12.97;11.63;;;25.40;64.40;;;;;;3537279;40;20482;-51
2021/05/17 08:24:17;;;;;;;10.90;10.30;;;25.30;64.40;;;;;;3536656;40;20507;-50
2021/05/17 08:26:45;;;;;;;11.57;10.63;;;25.30;64.40;;;;;;3537469;40;20494;-49
2021/05/17 08:29:12;;;;;;;11.27;10.47;;;25.30;64.50;;;;;;3538536;40;20485;-51
2021/05/17 08:31:40;;;;;;;11.50;10.80;;;25.30;64.60;;;;;;3537847;40;20523;-51
2021/05/17 08:34:09;;;;;;;11.40;10.60;;;25.30;64.70;;;;;;3539484;40;20506;-51
2021/05/17 08:36:35;;;;;;;11.83;10.80;;;25.30;65.00;;;;;;3538755;40;20537;-50
2021/05/17 08:39:04;;;;;;;12.23;11.13;;;25.30;65.20;;;;;;3529061;40;20517;-49
2021/05/17 08:41:35;;;;;;;11.70;10.63;;;25.30;65.20;;;;;;3537973;40;20617;-52
2021/05/17 08:44:03;;;;;;;11.83;11.00;;;25.30;65.30;;;;;;3539124;40;20580;-49
2021/05/17 08:46:30;;;;;;;12.50;11.27;;;25.30;65.30;;;;;;3536392;40;20832;-50
2021/05/17 08:48:59;;;;;;;12.20;11.33;;;25.20;65.30;;;;;;3536483;40;20739;-51
2021/05/17 08:51:29;;;;;;;19.00;12.10;;;25.20;65.40;;;;;;3536750;40;21338;-50
2021/05/17 08:54:01;;;;;;;17.63;11.95;;;25.20;65.50;;;;;;3540391;40;20512;-52
2021/05/17 08:56:28;;;;;;;12.83;11.93;;;25.20;65.50;;;;;;3547864;40;20250;-50
2021/05/17 08:58:56;;;;;;;13.30;11.90;;;25.20;65.50;;;;;;3543662;40;20541;-50
2021/05/17 09:01:24;;;;;;;13.32;12.00;;;25.20;65.70;;;;;;3545793;40;20535;-50
2021/05/17 09:03:57;;;;;;;12.17;11.33;;;25.20;65.90;;;;;;3546197;40;20314;-53
2021/05/17 09:06:37;;;;;;;12.52;11.75;;;25.20;65.90;;;;;;3548201;40;20475;-49
2021/05/17 09:09:05;;;;;;;11.80;11.30;;;25.20;66.00;;;;;;3543440;40;20615;-48
2021/05/17 09:11:34;;;;;;;12.90;12.20;;;25.20;65.90;;;;;;3545184;40;20436;-49
2021/05/17 09:14:09;;;;;;;13.40;12.20;;;25.30;66.20;;;;;;3541126;40;20467;-51
2021/05/17 09:16:47;;;;;;;13.50;12.57;;;25.40;66.70;;;;;;3546755;40;20782;-49
2021/05/17 09:19:15;;;;;;;14.25;13.00;;;25.30;66.40;;;;;;3542527;40;20960;-49
2021/05/17 09:22:03;;;;;;;13.27;12.00;;;25.30;66.10;;;;;;3546853;40;20578;-51
2021/05/17 09:24:47;;;;;;;12.80;12.30;;;25.30;67.10;;;;;;3542684;40;20954;-49
2021/05/17 09:27:16;;;;;;;14.37;13.37;;;25.30;68.30;;;;;;3531519;40;20535;-49
2021/05/17 09:29:45;;;;;;;13.07;12.18;;;25.30;68.40;;;;;;3546537;40;20502;-50
2021/05/17 09:32:17;;;;;;;14.77;13.20;;;25.30;68.20;;;;;;3543916;40;20462;-52
2021/05/17 09:34:46;;;;;;;12.93;12.13;;;25.30;67.90;;;;;;3544387;40;20808;-53
2021/05/17 09:37:13;;;;;;;12.80;12.10;;;25.30;68.10;;;;;;3545705;40;20490;-51
2021/05/17 09:39:49;;;;;;;14.43;13.07;;;25.30;68.20;;;;;;3542464;40;20739;-50
2021/05/17 09:42:21;;;;;;;12.93;11.83;;;25.30;68.50;;;;;;3540795;40;20516;-50
2021/05/17 09:44:48;;;;;;;14.50;12.07;;;25.30;68.40;;;;;;3548713;40;20872;-50
2021/05/17 09:47:17;;;;;;;13.37;12.17;;;25.30;68.40;;;;;;3543451;40;20484;-51
2021/05/17 09:49:49;;;;;;;12.57;11.77;;;25.20;68.40;;;;;;3544986;40;20488;-50
2021/05/17 09:52:18;;;;;;;13.20;12.30;;;25.20;68.60;;;;;;3547753;40;20534;-51
2021/05/17 09:55:04;;;;;;;13.60;12.90;;;25.20;68.80;;;;;;3541905;40;20535;-50
2021/05/17 09:57:34;;;;;;;14.03;12.93;;;25.20;68.90;;;;;;3540406;40;20478;-51
2021/05/17 10:00:09;;;;;;;12.13;11.53;;;25.20;68.80;;;;;;3542030;40;20497;-50
2021/05/17 10:02:40;;;;;;;12.87;11.90;;;25.20;69.00;;;;;;3548484;40;20505;-50
2021/05/17 10:05:12;;;;;;;12.33;11.17;;;25.20;68.90;;;;;;3534379;40;21375;-52
2021/05/17 10:07:42;;;;;;;12.10;11.07;;;25.20;69.00;;;;;;3534025;40;20955;-50
2021/05/17 10:10:10;;;;;;;12.47;11.43;;;25.20;68.90;;;;;;3536588;40;20482;-51
2021/05/17 10:12:41;;;;;;;12.37;11.63;;;25.20;69.00;;;;;;3538380;40;20501;-51
2021/05/17 10:15:11;;;;;;;12.53;11.67;;;25.20;68.90;;;;;;3546224;40;20485;-50
2021/05/17 10:17:38;;;;;;;11.90;11.40;;;25.20;68.80;;;;;;3547146;40;20486;-50
2021/05/17 10:20:09;;;;;;;12.63;11.70;;;25.20;68.80;;;;;;3534610;40;20497;-49
2021/05/17 10:22:37;;;;;;;12.17;11.33;;;25.20;68.80;;;;;;3547733;40;20863;-50
2021/05/17 10:25:06;;;;;;;13.23;12.23;;;25.10;68.70;;;;;;3544265;40;20518;-49
2021/05/17 10:27:41;;;;;;;12.77;12.00;;;25.10;68.70;;;;;;3545797;40;20501;-49
2021/05/17 10:30:10;;;;;;;12.73;11.73;;;25.10;68.70;;;;;;3543567;40;21144;-49
2021/05/17 10:32:41;;;;;;;12.53;11.87;;;25.10;68.70;;;;;;3543617;40;20477;-49
2021/05/17 10:35:11;;;;;;;11.87;11.20;;;25.10;68.70;;;;;;3541257;40;20503;-49
2021/05/17 10:37:38;;;;;;;11.23;10.67;;;25.10;68.60;;;;;;3544107;40;20754;-49
2021/05/17 10:40:09;;;;;;;12.03;11.37;;;25.10;68.60;;;;;;3543453;40;20485;-50
2021/05/17 10:42:47;;;;;;;12.70;11.80;;;25.10;68.60;;;;;;3544031;40;20704;-50
2021/05/17 10:48:22;;;;;;;12.00;11.40;;;25.10;68.50;;;;;;3516029;40;20482;-49
2021/05/17 10:50:51;;;;;;;12.80;11.83;;;25.10;68.50;;;;;;3544790;40;20529;-49
2021/05/17 10:53:43;;;;;;;12.80;11.67;;;25.10;68.40;;;;;;3546079;40;21105;-50
2021/05/17 10:56:14;;;;;;;12.20;11.60;;;25.00;69.20;;;;;;3547066;40;20492;-49
2021/05/17 11:01:53;;;;;;;11.87;11.30;;;25.00;68.40;;;;;;3545704;40;20727;-49
2021/05/17 11:04:26;;;;;;;13.17;12.47;;;25.00;68.40;;;;;;3541128;40;20844;-48
2021/05/17 11:07:16;;;;;;;12.10;11.43;;;25.00;68.40;;;;;;3547374;40;20498;-49
2021/05/17 11:09:53;;;;;;;12.13;11.30;;;25.00;68.50;;;;;;3546821;40;20488;-49
2021/05/17 11:12:56;;;;;;;13.30;12.40;;;25.00;68.60;;;;;;3543571;40;20493;-49
2021/05/17 11:15:41;;;;;;;13.77;12.97;;;25.00;68.70;;;;;;3517254;40;20508;-50
2021/05/17 11:18:25;;;;;;;13.83;12.93;;;25.00;68.70;;;;;;3542246;40;20711;-49
2021/05/17 11:20:57;;;;;;;13.57;12.87;;;25.00;68.80;;;;;;3535141;40;20505;-51
2021/05/17 11:23:52;;;;;;;14.03;13.07;;;25.00;68.80;;;;;;3540685;40;20475;-50
2021/05/17 11:26:23;;;;;;;14.60;13.40;;;25.00;68.80;;;;;;3540877;40;20827;-49
2021/05/17 11:29:03;;;;;;;13.60;12.70;;;25.00;68.90;;;;;;3538014;40;21228;-49
2021/05/17 11:31:49;;;;;;;13.63;12.70;;;25.00;69.00;;;;;;3542318;40;20498;-49
2021/05/17 11:34:21;;;;;;;13.30;12.57;;;25.00;69.10;;;;;;3537824;40;20483;-49
2021/05/17 11:36:53;;;;;;;14.07;12.87;;;25.00;69.10;;;;;;3539153;40;20954;-49
2021/05/17 11:39:22;;;;;;;14.70;13.10;;;25.00;69.10;;;;;;3537894;40;20936;-49
2021/05/17 11:42:02;;;;;;;13.37;12.60;;;25.00;69.00;;;;;;3535529;40;20579;-49
2021/05/17 11:44:32;;;;;;;12.90;12.30;;;25.00;69.00;;;;;;3538841;40;20969;-49
2021/05/17 11:47:03;;;;;;;13.57;12.77;;;25.00;69.10;;;;;;3537000;40;20783;-49
2021/05/17 11:49:32;;;;;;;12.53;11.70;;;25.00;69.20;;;;;;3540137;40;20761;-49
2021/05/17 11:52:01;;;;;;;13.27;12.20;;;24.90;69.30;;;;;;3536419;40;20759;-49
2021/05/17 11:54:38;;;;;;;11.93;11.33;;;24.90;69.40;;;;;;3540078;40;20612;-50
2021/05/17 11:57:08;;;;;;;13.63;12.53;;;24.90;69.40;;;;;;3530448;40;20498;-49
2021/05/17 11:59:35;;;;;;;13.40;12.33;;;25.00;69.40;;;;;;3534502;40;20491;-49
2021/05/17 12:02:05;;;;;;;13.90;12.60;;;24.90;69.30;;;;;;3533794;40;20486;-49
2021/05/17 12:04:34;;;;;;;12.90;12.00;;;24.90;69.30;;;;;;3538671;40;20477;-50
2021/05/17 12:07:04;;;;;;;13.70;12.50;;;24.90;69.30;;;;;;3539639;40;20487;-49
2021/05/17 12:09:41;;;;;;;12.60;12.00;;;24.90;69.30;;;;;;3538458;40;20512;-49
2021/05/17 12:12:10;;;;;;;14.17;13.17;;;24.90;69.30;;;;;;3529214;40;20535;-50
2021/05/17 12:14:40;;;;;;;13.27;12.37;;;25.00;69.40;;;;;;3537755;40;20494;-49
2021/05/17 12:17:10;;;;;;;12.80;12.20;;;25.00;69.30;;;;;;3539913;40;20487;-49
2021/05/17 12:19:39;;;;;;;13.20;12.40;;;24.90;69.20;;;;;;3546619;40;20709;-50
2021/05/17 12:22:11;;;;;;;13.03;12.17;;;24.90;69.30;;;;;;3538412;40;20885;-49
2021/05/17 12:24:39;;;;;;;13.80;13.00;;;24.90;69.40;;;;;;3548528;40;21508;-49
2021/05/17 12:27:07;;;;;;;14.13;12.90;;;24.90;69.40;;;;;;3550676;40;20684;-50
2021/05/17 12:30:05;;;;;;;12.77;12.07;;;24.90;69.40;;;;;;3550714;40;20493;-50
2021/05/17 12:32:43;;;;;;;12.97;12.07;;;24.90;69.40;;;;;;3502030;40;20797;-50
2021/05/17 12:35:14;;;;;;;12.20;11.60;;;24.90;69.40;;;;;;3544616;40;20479;-51
2021/05/17 12:37:43;;;;;;;13.00;12.10;;;24.90;69.40;;;;;;3549159;40;20516;-50
2021/05/17 12:40:21;;;;;;;12.93;12.03;;;24.80;69.40;;;;;;3543545;40;21184;-49
2021/05/17 12:43:08;;;;;;;12.97;12.17;;;24.80;69.50;;;;;;3538241;40;20482;-49
2021/05/17 12:45:39;;;;;;;12.30;11.60;;;24.80;69.50;;;;;;3537565;40;20493;-51
2021/05/17 12:48:18;;;;;;;13.07;12.37;;;24.80;69.60;;;;;;3538677;40;20502;-50
2021/05/17 12:50:47;;;;;;;17.43;11.93;;;24.80;69.70;;;;;;3539740;40;20914;-51
2021/05/17 12:53:25;;;;;;;13.07;12.37;;;24.80;69.50;;;;;;3533043;40;21110;-49
2021/05/17 12:55:53;;;;;;;12.10;11.40;;;24.80;69.70;;;;;;3538972;40;21151;-49
2021/05/17 12:58:34;;;;;;;11.97;11.30;;;24.80;69.70;;;;;;3539053;40;20769;-50
2021/05/17 13:01:07;;;;;;;12.63;11.93;;;24.80;69.60;;;;;;3536301;40;21045;-50
2021/05/17 13:03:40;;;;;;;12.37;11.57;;;24.80;69.60;;;;;;3538318;40;20655;-49
2021/05/17 13:06:08;;;;;;;12.40;11.70;;;24.80;69.60;;;;;;3537464;40;20498;-49
2021/05/17 13:08:53;;;;;;;12.93;12.20;;;24.80;69.60;;;;;;3535192;40;20502;-49